Baruunkharaa, Mongolia
Current Conditions -  °F | °C
As of 2:00 PM on Sunday 23 Nov 2014 (Local Time) from ZMUB Reporting Station
Clear Clear  
Wind Chill: 13°   Ceiling: Unl
Heat Index: 21°   Visibility: 6mi
Dew Point:   Wind: 7mph
Humidity: 42%   Direction: 240°WSW
Pressure: 30.15"   Gusts: NA
Location:  48.92°N, 106.07°E
Report Text: ZMUB 230600Z 24003MPS CAVOK M06/M17 Q1021 NOSIG RMK QFE657.7 39
Loading
Personal Weather Stations






























Interactive Weather Map New forecast layout! Learn more

10-Day Weather Forecast

Advertisements
Track Severe Weather on mobile